Time;durP1;ratioP1;P1;durP2;ratioP2;P2;SDS_P1;SDS_P2;PMS_P1;PMS_P2;Temp;Humidity;BMP_temperature;BMP_pressure;BME280_temperature;BME280_humidity;BME280_pressure;Samples;Min_cycle;Max_cycle;Signal;HPM_P1;HPM_P2
2023/10/01 00:01:53;;;;;;;;;13.33;12.00;;;;;16.80;70.67;102307.59;5007863;28;9244;-69
2023/10/01 00:04:20;;;;;;;;;9.00;9.00;;;;;16.79;70.72;102312.19;5000416;28;10010;-68
2023/10/01 00:06:47;;;;;;;;;9.00;9.00;;;;;16.79;70.83;102314.91;4989382;28;9161;-69
2023/10/01 00:09:19;;;;;;;;;7.00;7.00;;;;;16.79;70.69;102314.91;4993530;28;9171;-68
2023/10/01 00:11:46;;;;;;;;;11.00;9.67;;;;;16.82;70.53;102304.69;5008501;28;9941;-69
2023/10/01 00:14:16;;;;;;;;;15.67;13.33;;;;;16.82;70.30;102294.66;4993555;28;9016;-67
2023/10/01 00:16:53;;;;;;;;;7.00;6.33;;;;;16.83;70.78;102287.31;4992794;28;9090;-68
2023/10/01 00:19:20;;;;;;;;;9.67;9.00;;;;;16.77;70.22;102295.25;4990360;28;9033;-68
2023/10/01 00:21:46;;;;;;;;;10.67;10.00;;;;;16.72;70.89;102292.25;4991123;28;9098;-67
2023/10/01 00:24:13;;;;;;;;;11.67;10.33;;;;;16.71;70.20;102290.56;4993539;28;9039;-69
2023/10/01 00:26:39;;;;;;;;;14.00;12.33;;;;;16.67;70.58;102297.44;4984153;28;9188;-68
2023/10/01 00:29:06;;;;;;;;;8.33;8.33;;;;;16.68;70.39;102290.97;4993131;28;9197;-68
2023/10/01 00:31:33;;;;;;;;;16.67;14.67;;;;;16.64;70.14;102292.41;5008389;28;9801;-69
2023/10/01 00:33:59;;;;;;;;;10.00;10.00;;;;;16.64;70.19;102289.69;4991336;28;9382;-69
2023/10/01 00:36:28;;;;;;;;;12.67;11.00;;;;;16.63;70.43;102282.56;4990634;28;9185;-67
2023/10/01 00:38:56;;;;;;;;;9.67;8.00;;;;;16.62;70.21;102285.50;5008274;28;9171;-68
2023/10/01 00:41:23;;;;;;;;;13.33;12.00;;;;;16.64;70.69;102281.53;4992180;28;9185;-69
2023/10/01 00:43:49;;;;;;;;;8.33;8.33;;;;;16.67;70.44;102283.00;4992127;28;9196;-67
2023/10/01 00:46:18;;;;;;;;;13.00;13.00;;;;;16.61;70.47;102283.78;5002173;28;9154;-67
2023/10/01 00:48:46;;;;;;;;;11.00;10.33;;;;;16.60;70.58;102282.13;4966269;28;9317;-68
2023/10/01 00:51:12;;;;;;;;;12.67;9.00;;;;;16.60;70.72;102291.13;5006513;28;9724;-68
2023/10/01 00:53:39;;;;;;;;;10.67;10.00;;;;;16.54;70.86;102278.34;5006678;28;9245;-67
2023/10/01 00:56:05;;;;;;;;;7.33;7.00;;;;;16.54;70.75;102281.88;4984223;28;9785;-69
2023/10/01 00:58:33;;;;;;;;;9.67;8.33;;;;;16.56;70.41;102287.09;4991516;28;9102;-69
2023/10/01 01:01:00;;;;;;;;;9.00;9.00;;;;;16.55;70.92;102278.13;4991388;28;9022;-69
2023/10/01 01:03:27;;;;;;;;;12.33;12.33;;;;;16.54;71.00;102278.34;4982875;28;9859;-68
2023/10/01 01:05:57;;;;;;;;;11.00;10.00;;;;;16.52;71.08;102274.97;4991352;28;9525;-69
2023/10/01 01:08:33;;;;;;;;;9.67;9.67;;;;;16.51;70.68;102281.44;5007354;28;9319;-69
2023/10/01 01:11:01;;;;;;;;;11.67;11.67;;;;;16.51;70.50;102270.56;4991410;28;9157;-68
2023/10/01 01:13:33;;;;;;;;;15.67;12.00;;;;;16.50;70.61;102275.16;4991274;28;9243;-68
2023/10/01 01:16:00;;;;;;;;;11.00;10.33;;;;;16.52;70.67;102272.25;4990281;28;9390;-69
2023/10/01 01:18:28;;;;;;;;;10.00;10.00;;;;;16.54;70.60;102265.56;4992006;28;9337;-68
2023/10/01 01:20:58;;;;;;;;;14.67;13.00;;;;;16.53;70.61;102263.91;4989989;28;9097;-68
2023/10/01 01:23:26;;;;;;;;;11.33;10.33;;;;;16.51;70.33;102249.66;4990213;28;9319;-68
2023/10/01 01:25:54;;;;;;;;;11.00;10.00;;;;;16.51;70.53;102251.53;4990982;28;9187;-68
2023/10/01 01:28:35;;;;;;;;;7.67;7.67;;;;;16.51;70.42;102256.97;4995824;28;9242;-68
2023/10/01 01:31:08;;;;;;;;;8.67;8.67;;;;;16.48;70.29;102266.34;4987768;28;9286;-69
2023/10/01 01:33:44;;;;;;;;;8.67;8.67;;;;;16.48;70.23;102263.63;4984944;28;9060;-68
2023/10/01 01:36:12;;;;;;;;;14.67;10.33;;;;;16.45;70.54;102258.63;4992218;28;9931;-68
2023/10/01 01:39:09;;;;;;;;;8.00;7.33;;;;;16.49;70.55;102261.78;4992193;28;9078;-68
2023/10/01 01:41:42;;;;;;;;;9.00;8.00;;;;;16.49;70.57;102268.06;4981685;28;9123;-68
2023/10/01 01:44:13;;;;;;;;;10.67;10.67;;;;;16.49;70.33;102259.06;5002044;28;9239;-69
2023/10/01 01:46:47;;;;;;;;;9.00;9.00;;;;;16.48;70.57;102257.38;4988148;28;9175;-68
2023/10/01 01:49:17;;;;;;;;;11.33;10.00;;;;;16.49;70.68;102251.75;5002295;28;9902;-68
2023/10/01 01:51:56;;;;;;;;;5.33;5.33;;;;;16.51;70.52;102255.09;4992023;28;9191;-68
2023/10/01 01:54:29;;;;;;;;;8.33;8.33;;;;;16.52;70.50;102240.44;4991868;28;8938;-68
2023/10/01 01:56:56;;;;;;;;;6.33;5.00;;;;;16.54;70.52;102246.53;4991367;28;9114;-69
2023/10/01 01:59:24;;;;;;;;;4.67;4.67;;;;;16.56;70.38;102240.91;4990863;28;9679;-69
2023/10/01 02:01:55;;;;;;;;;7.67;7.00;;;;;16.53;70.46;102235.88;4974745;28;9088;-68
2023/10/01 02:04:23;;;;;;;;;5.67;5.67;;;;;16.51;70.75;102235.22;4990877;28;9295;-68
2023/10/01 02:06:54;;;;;;;;;6.00;5.67;;;;;16.51;70.78;102243.38;4991437;28;8992;-67
2023/10/01 02:09:20;;;;;;;;;6.33;6.33;;;;;16.51;70.60;102235.22;4989380;28;9171;-68
2023/10/01 02:11:48;;;;;;;;;12.00;10.00;;;;;16.49;70.77;102231.88;4989152;28;9149;-68
2023/10/01 02:14:31;;;;;;;;;7.00;6.00;;;;;16.47;70.63;102223.91;4990527;28;9944;-69
2023/10/01 02:17:15;;;;;;;;;10.33;7.00;;;;;16.48;70.55;102228.31;4973767;28;8933;-68
2023/10/01 02:19:49;;;;;;;;;6.33;6.33;;;;;16.50;71.00;102230.84;4990660;28;8976;-68
2023/10/01 02:22:16;;;;;;;;;8.33;7.00;;;;;16.50;70.70;102223.53;4991655;28;10084;-67
2023/10/01 02:24:45;;;;;;;;;8.67;7.33;;;;;16.52;70.59;102237.72;5005106;28;9089;-68
2023/10/01 02:27:13;;;;;;;;;7.33;7.33;;;;;16.50;70.79;102231.69;4991303;28;9113;-68
2023/10/01 02:30:11;;;;;;;;;7.33;7.33;;;;;16.53;70.66;102234.00;4991508;28;9701;-68
2023/10/01 02:32:34;;;;;;;;;9.00;6.33;;;;;16.53;70.87;102238.59;4983392;28;9223;-69
2023/10/01 02:35:33;;;;;;;;;6.00;6.00;;;;;16.53;70.64;102231.28;4988904;28;9079;-68
2023/10/01 02:37:47;;;;;;;;;8.33;8.33;;;;;16.48;70.63;102232.91;4990397;28;8930;-68
2023/10/01 02:40:17;;;;;;;;;5.67;5.67;;;;;16.49;70.93;102229.16;4989373;28;9012;-68
2023/10/01 02:42:49;;;;;;;;;7.67;6.00;;;;;16.51;71.16;102224.34;4987685;28;8971;-69
2023/10/01 02:48:18;;;;;;;;;9.00;8.00;;;;;16.48;70.74;102216.59;4948704;28;8977;-69
2023/10/01 02:50:51;;;;;;;;;8.00;7.00;;;;;16.50;71.07;102215.38;4949941;28;9193;-69
2023/10/01 02:53:20;;;;;;;;;6.75;6.50;;;;;16.51;70.99;102210.75;4946110;28;9072;-69
2023/10/01 02:55:48;;;;;;;;;6.00;6.00;;;;;16.53;70.93;102211.41;4935766;29;8846;-69
2023/10/01 02:58:18;;;;;;;;;3.33;3.33;;;;;16.53;71.13;102203.25;4948821;28;8863;-70
2023/10/01 03:00:45;;;;;;;;;3.00;3.00;;;;;16.52;71.10;102207.00;4949005;28;9232;-69
2023/10/01 03:03:15;;;;;;;;;7.33;5.00;;;;;16.49;71.32;102208.25;4955824;28;9009;-68
2023/10/01 03:05:46;;;;;;;;;11.67;7.33;;;;;16.47;71.49;102213.03;4950139;28;9235;-69
2023/10/01 03:08:41;;;;;;;;;6.00;6.00;;;;;16.48;71.37;102205.72;4947042;28;9338;-70
2023/10/01 03:11:09;;;;;;;;;7.00;6.67;;;;;16.45;71.52;102204.25;4956925;28;9803;-68
2023/10/01 03:13:36;;;;;;;;;10.33;8.67;;;;;16.41;71.51;102194.00;4933926;28;8954;-69
2023/10/01 03:18:54;;;;;;;;;3.00;3.00;;;;;16.38;71.94;102191.66;4950381;28;9100;-70
2023/10/01 03:22:14;;;;;;;;;8.00;8.00;;;;;16.39;71.66;102196.88;4949040;28;8933;-69
2023/10/01 03:24:20;;;;;;;;;9.00;5.33;;;;;16.42;72.06;102187.50;4951702;28;9096;-70
2023/10/01 03:26:46;;;;;;;;;3.00;3.00;;;;;16.42;71.84;102184.78;4949149;28;8916;-68
2023/10/01 03:29:34;;;;;;;;;5.00;5.00;;;;;16.39;71.88;102188.75;4958170;28;8957;-69
2023/10/01 03:32:26;;;;;;;;;5.67;4.33;;;;;16.38;71.70;102175.38;4950694;28;9095;-69
2023/10/01 03:34:52;;;;;;;;;11.33;8.67;;;;;16.34;71.70;102179.53;4942125;28;9029;-69
2023/10/01 03:37:19;;;;;;;;;7.33;6.67;;;;;16.29;72.20;102175.53;4954591;28;9182;-68
2023/10/01 03:39:52;;;;;;;;;6.00;4.00;;;;;16.32;71.99;102183.25;4951227;28;9082;-70
2023/10/01 03:42:19;;;;;;;;;8.67;7.67;;;;;16.28;72.25;102178.41;4951545;28;8938;-68
2023/10/01 03:47:34;;;;;;;;;5.50;2.75;;;;;16.32;72.56;102175.09;4944043;28;8997;-70
2023/10/01 03:50:01;;;;;;;;;6.00;4.00;;;;;16.35;72.33;102173.88;4945375;28;8845;-69
2023/10/01 03:52:39;;;;;;;;;6.00;6.00;;;;;16.35;72.62;102178.47;4953403;28;8847;-68
2023/10/01 04:00:34;;;;;;;;;5.33;5.33;;;;;16.31;72.40;102176.16;4953479;28;8842;-70
2023/10/01 04:03:01;;;;;;;;;5.33;5.33;;;;;16.33;72.38;102173.25;4955421;28;9122;-69
2023/10/01 04:05:31;;;;;;;;;8.33;8.33;;;;;16.31;72.64;102169.88;4956501;28;9329;-68
2023/10/01 04:08:00;;;;;;;;;8.33;7.00;;;;;16.31;72.30;102173.44;4951811;28;9990;-68
2023/10/01 04:13:12;;;;;;;;;7.00;5.67;;;;;16.31;72.72;102175.31;4953123;28;9269;-69
2023/10/01 04:15:54;;;;;;;;;10.67;8.33;;;;;16.26;72.71;102165.03;4940458;28;9056;-70
2023/10/01 04:18:21;;;;;;;;;7.00;7.00;;;;;16.28;72.91;102178.41;4946187;28;9102;-69
2023/10/01 04:23:31;;;;;;;;;12.00;9.33;;;;;16.24;72.97;102177.97;4953019;28;9162;-69
2023/10/01 04:26:05;;;;;;;;;10.00;9.00;;;;;16.25;72.75;102181.56;4952296;28;9398;-69
2023/10/01 04:28:37;;;;;;;;;9.33;7.00;;;;;16.22;73.26;102184.66;4946682;28;9199;-69
2023/10/01 04:31:09;;;;;;;;;11.00;7.00;;;;;16.23;73.23;102186.34;4951351;28;9298;-69
2023/10/01 04:33:37;;;;;;;;;7.00;6.00;;;;;16.24;73.29;102175.25;4960581;28;9325;-69
2023/10/01 04:36:10;;;;;;;;;6.33;5.33;;;;;16.23;73.82;102194.50;4953797;28;9779;-70
2023/10/01 04:38:41;;;;;;;;;7.33;5.33;;;;;16.19;73.57;102188.59;4948499;28;8936;-69
2023/10/01 04:41:26;;;;;;;;;7.33;7.33;;;;;16.21;73.94;102175.69;4964034;28;9172;-68
2023/10/01 04:43:55;;;;;;;;;11.67;10.00;;;;;16.16;73.91;102175.41;4933546;29;9117;-70
2023/10/01 04:46:30;;;;;;;;;7.67;7.00;;;;;16.21;74.07;102169.41;4953395;28;10040;-70
2023/10/01 04:48:57;;;;;;;;;11.33;9.00;;;;;16.22;74.34;102169.19;4949066;28;9197;-69
2023/10/01 04:51:44;;;;;;;;;8.67;8.00;;;;;16.18;74.29;102164.38;4960462;28;9411;-70
2023/10/01 04:54:20;;;;;;;;;8.33;8.33;;;;;16.14;74.39;102165.81;4952061;28;9181;-69
2023/10/01 04:56:49;;;;;;;;;4.33;4.33;;;;;16.18;74.46;102161.66;4950932;28;9188;-67
2023/10/01 04:59:16;;;;;;;;;7.00;4.33;;;;;16.21;74.33;102162.09;4952074;28;9420;-68
2023/10/01 05:01:43;;;;;;;;;6.50;5.00;;;;;16.22;74.28;102166.47;4951629;28;10038;-67
2023/10/01 05:04:14;;;;;;;;;13.00;8.00;;;;;16.19;74.24;102168.75;4951487;28;9173;-67
2023/10/01 05:06:59;;;;;;;;;9.67;7.67;;;;;16.19;74.74;102180.47;4950760;28;9154;-67
2023/10/01 05:09:33;;;;;;;;;7.33;6.67;;;;;16.20;74.81;102167.72;4946754;28;9329;-67
2023/10/01 05:12:03;;;;;;;;;7.00;6.67;;;;;16.19;74.77;102169.59;4952015;28;9265;-67
2023/10/01 05:14:30;;;;;;;;;8.67;6.00;;;;;16.18;74.36;102167.91;4950698;28;9443;-68
2023/10/01 05:17:07;;;;;;;;;7.00;6.33;;;;;16.19;75.15;102180.47;4947077;28;9248;-68
2023/10/01 05:19:37;;;;;;;;;10.00;8.00;;;;;16.24;74.87;102188.84;4978654;28;9255;-68
2023/10/01 05:22:08;;;;;;;;;7.33;7.00;;;;;16.23;74.56;102176.31;4956429;28;9092;-68
2023/10/01 05:24:35;;;;;;;;;6.33;6.33;;;;;16.20;74.96;102192.16;4952927;28;9267;-68
2023/10/01 05:27:03;;;;;;;;;7.33;7.33;;;;;16.22;75.06;102185.50;4951340;28;9016;-67
2023/10/01 05:29:31;;;;;;;;;8.67;8.33;;;;;16.25;74.86;102197.88;4947468;28;9078;-68
2023/10/01 05:31:57;;;;;;;;;7.33;6.00;;;;;16.25;74.83;102190.53;4950257;28;9319;-66
2023/10/01 05:34:25;;;;;;;;;8.00;6.00;;;;;16.25;75.39;102184.28;4948328;28;8967;-67
2023/10/01 05:36:52;;;;;;;;;4.00;4.00;;;;;16.28;75.01;102183.84;4949730;28;9170;-68
2023/10/01 05:39:23;;;;;;;;;8.00;8.00;;;;;16.28;74.82;102187.41;4952284;28;9113;-68
2023/10/01 05:41:52;;;;;;;;;11.33;8.00;;;;;16.22;75.29;102187.38;4950732;28;9120;-68
2023/10/01 05:44:19;;;;;;;;;8.00;7.00;;;;;16.21;75.25;102189.25;4954023;28;9110;-67
2023/10/01 05:46:49;;;;;;;;;6.67;6.00;;;;;16.24;75.46;102191.56;4949818;28;9248;-67
2023/10/01 05:49:18;;;;;;;;;9.67;8.00;;;;;16.23;75.67;102189.06;4944543;28;9694;-68
2023/10/01 05:51:45;;;;;;;;;6.33;5.67;;;;;16.25;75.73;102200.56;4967683;28;9925;-68
2023/10/01 05:54:18;;;;;;;;;12.00;6.00;;;;;16.26;75.80;102200.38;4947693;28;9062;-68
2023/10/01 05:56:48;;;;;;;;;7.67;7.00;;;;;16.27;75.58;102196.59;4949656;28;9359;-68
2023/10/01 05:59:16;;;;;;;;;12.00;6.33;;;;;16.27;75.73;102198.50;4951058;28;9092;-68
2023/10/01 06:01:43;;;;;;;;;8.00;8.00;;;;;16.24;75.89;102194.28;4949197;28;9843;-67
2023/10/01 06:04:12;;;;;;;;;8.00;6.67;;;;;16.27;75.91;102193.88;4952174;28;9173;-69
2023/10/01 06:06:42;;;;;;;;;6.00;3.33;;;;;16.29;75.80;102185.56;4950677;28;9224;-68
2023/10/01 06:09:14;;;;;;;;;8.00;8.00;;;;;16.28;75.78;102181.13;4950948;28;9152;-68
2023/10/01 06:11:48;;;;;;;;;7.33;7.33;;;;;16.30;76.03;102177.19;4949333;28;9279;-66
2023/10/01 06:17:00;;;;;;;;;10.00;10.00;;;;;16.27;75.75;102183.03;4943689;28;9265;-68
2023/10/01 06:19:32;;;;;;;;;12.00;10.33;;;;;16.28;76.05;102192.00;4952630;28;9337;-68
2023/10/01 06:22:22;;;;;;;;;11.00;11.00;;;;;16.33;76.38;102195.00;4981820;28;9117;-68
2023/10/01 06:24:49;;;;;;;;;8.67;6.00;;;;;16.29;76.29;102186.38;4951708;28;9345;-68
2023/10/01 06:27:19;;;;;;;;;8.33;6.00;;;;;16.31;76.05;102181.56;4947306;28;9088;-67
2023/10/01 06:29:51;;;;;;;;;8.67;7.67;;;;;16.28;76.46;102184.69;4951128;28;9006;-68
2023/10/01 06:32:19;;;;;;;;;8.00;8.00;;;;;16.30;76.67;102188.06;4953714;28;9240;-67
2023/10/01 06:34:47;;;;;;;;;4.33;4.33;;;;;16.36;76.59;102182.84;4950671;28;9446;-67
2023/10/01 06:37:13;;;;;;;;;9.67;8.00;;;;;16.34;76.66;102184.94;4949286;28;9107;-68
2023/10/01 06:39:41;;;;;;;;;8.33;8.33;;;;;16.36;76.55;102182.84;4950475;28;9045;-67
2023/10/01 06:42:20;;;;;;;;;7.00;7.00;;;;;16.37;76.57;102184.56;4947535;28;9286;-67
2023/10/01 06:44:53;;;;;;;;;12.00;8.00;;;;;16.34;76.57;102187.66;4948901;28;9361;-67
2023/10/01 06:47:26;;;;;;;;;11.00;10.67;;;;;16.35;76.74;102200.22;4954106;28;9082;-67
2023/10/01 06:49:57;;;;;;;;;10.33;7.67;;;;;16.35;76.85;102195.63;4944222;28;9324;-67
2023/10/01 06:52:27;;;;;;;;;9.67;8.00;;;;;16.39;76.58;102198.78;4950995;28;9252;-67
2023/10/01 06:55:01;;;;;;;;;9.00;9.00;;;;;16.30;76.96;102201.66;4944182;28;9160;-67
2023/10/01 06:57:31;;;;;;;;;9.00;8.67;;;;;16.30;76.94;102195.38;4977941;28;9448;-68
2023/10/01 06:59:57;;;;;;;;;12.67;12.67;;;;;16.32;77.06;102198.72;4949456;29;9402;-70
2023/10/01 07:02:25;;;;;;;;;9.00;8.00;;;;;16.35;77.41;102195.63;4945224;28;9248;-68
2023/10/01 07:04:56;;;;;;;;;13.00;11.33;;;;;16.32;76.82;102205.00;4979502;28;9264;-68
2023/10/01 07:07:40;;;;;;;;;12.00;9.67;;;;;16.32;77.62;102196.84;4945639;28;9084;-68
2023/10/01 07:10:10;;;;;;;;;16.33;13.33;;;;;16.35;77.19;102211.91;4944268;28;9175;-68
2023/10/01 07:12:38;;;;;;;;;11.67;9.67;;;;;16.36;77.16;102212.75;4949838;28;9386;-69
2023/10/01 07:15:06;;;;;;;;;13.00;13.00;;;;;16.43;77.36;102211.75;4941182;28;9253;-67
2023/10/01 07:17:33;;;;;;;;;10.00;8.67;;;;;16.46;76.96;102214.09;4938505;28;9192;-69
2023/10/01 07:20:00;;;;;;;;;18.67;7.33;;;;;16.46;77.05;102218.69;4947246;29;9169;-68
2023/10/01 07:22:31;;;;;;;;;16.33;12.67;;;;;16.45;76.91;102212.41;4946472;28;9220;-69
2023/10/01 07:25:02;;;;;;;;;9.33;8.00;;;;;16.49;77.02;102204.69;4942175;28;9411;-70
2023/10/01 07:27:29;;;;;;;;;6.00;5.67;;;;;16.51;76.92;102200.72;4983015;28;9182;-71
2023/10/01 07:29:56;;;;;;;;;13.33;12.67;;;;;16.58;76.78;102213.53;4951554;28;9140;-67
2023/10/01 07:32:24;;;;;;;;;8.67;8.67;;;;;16.59;77.19;102207.88;4979167;28;9435;-70
2023/10/01 07:34:58;;;;;;;;;11.33;10.00;;;;;16.60;77.24;102211.44;4955436;28;9176;-70
2023/10/01 07:37:26;;;;;;;;;12.67;10.00;;;;;16.63;77.26;102205.59;4947290;28;9177;-67
2023/10/01 07:40:08;;;;;;;;;7.00;7.00;;;;;16.68;76.93;102208.56;4959779;28;9193;-67
2023/10/01 07:42:46;;;;;;;;;15.67;13.00;;;;;16.66;77.22;102200.59;4952686;28;9283;-68
2023/10/01 07:45:18;;;;;;;;;11.67;10.33;;;;;16.68;77.13;102201.22;4995555;28;9528;-70
2023/10/01 07:47:44;;;;;;;;;14.00;12.00;;;;;16.70;77.29;102206.47;4959375;28;9770;-70
2023/10/01 07:50:16;;;;;;;;;14.67;13.67;;;;;16.75;77.05;102204.03;4983904;28;9175;-68
2023/10/01 07:52:44;;;;;;;;;13.67;12.00;;;;;16.80;76.96;102199.66;4953524;28;9170;-71
2023/10/01 07:55:29;;;;;;;;;12.67;9.00;;;;;16.81;77.16;102192.31;4952190;28;9291;-68
2023/10/01 07:58:22;;;;;;;;;20.67;16.67;;;;;16.88;77.31;102204.06;4953205;28;9344;-68
2023/10/01 08:00:44;;;;;;;;;8.00;8.00;;;;;16.88;77.21;102195.09;4964726;28;10092;-68
2023/10/01 08:05:50;;;;;;;;;13.00;11.67;;;;;16.92;77.24;102199.06;4959707;28;9172;-69
2023/10/01 08:08:37;;;;;;;;;15.33;15.00;;;;;16.96;77.28;102198.47;4948505;28;9288;-67
2023/10/01 08:11:55;;;;;;;;;19.33;16.67;;;;;17.00;77.21;102205.16;4951143;28;9095;-69
2023/10/01 08:13:55;;;;;;;;;11.33;8.00;;;;;17.04;77.04;102205.59;4952778;28;10095;-69
2023/10/01 08:16:23;;;;;;;;;13.67;12.67;;;;;17.10;77.20;102209.41;4952414;28;9788;-68
2023/10/01 08:18:57;;;;;;;;;12.33;11.67;;;;;17.10;76.93;102207.53;4983748;28;9189;-68
2023/10/01 08:21:36;;;;;;;;;11.00;10.00;;;;;17.15;76.64;102209.63;4944928;28;9250;-69
2023/10/01 08:24:09;;;;;;;;;8.00;8.00;;;;;17.20;76.45;102207.13;4943159;28;9064;-68
2023/10/01 08:26:57;;;;;;;;;10.67;9.00;;;;;17.19;76.52;102208.19;4947209;28;8932;-68
2023/10/01 08:29:28;;;;;;;;;16.00;15.00;;;;;17.23;76.76;102221.16;4946580;28;8934;-68
2023/10/01 08:34:22;;;;;;;;;8.75;8.75;;;;;17.37;76.19;102222.03;4941624;28;9131;-68
2023/10/01 08:36:54;;;;;;;;;10.50;10.25;;;;;17.43;76.16;102226.66;4949541;28;8864;-68
2023/10/01 08:39:34;;;;;;;;;13.00;9.67;;;;;17.45;76.13;102234.63;4969514;28;8869;-68
2023/10/01 08:42:11;;;;;;;;;13.00;10.00;;;;;17.47;75.63;102227.09;4950312;28;9876;-69
2023/10/01 08:44:51;;;;;;;;;17.00;12.00;;;;;17.44;76.03;102222.88;4947391;28;8834;-69
2023/10/01 08:47:31;;;;;;;;;17.67;12.00;;;;;17.39;76.09;102224.56;5007543;23;9230;-67
2023/10/01 08:53:20;;;;;;;;;10.33;9.00;;;;;17.44;76.30;102227.50;5012210;28;9000;-68
2023/10/01 08:58:15;;;;;;;;;6.00;6.00;;;;;17.60;76.34;102218.94;5003237;28;9119;-70
2023/10/01 09:00:48;;;;;;;;;7.33;7.00;;;;;17.67;76.05;102222.53;5002313;28;8985;-67
2023/10/01 09:03:28;;;;;;;;;11.00;9.67;;;;;17.76;76.24;102229.47;5012083;28;8940;-68
2023/10/01 09:06:24;;;;;;;;;11.33;10.33;;;;;17.78;75.52;102226.53;4992229;28;8944;-68
2023/10/01 09:08:54;;;;;;;;;13.75;9.50;;;;;17.77;75.29;102227.56;4992967;28;8998;-67
2023/10/01 09:11:42;;;;;;;;;10.25;9.25;;;;;17.83;75.22;102232.22;5010152;28;8860;-68
2023/10/01 09:14:18;;;;;;;;;10.25;8.50;;;;;17.87;75.40;102233.47;5010007;28;8899;-68
2023/10/01 09:16:46;;;;;;;;;9.00;9.00;;;;;17.87;75.30;102240.81;4992080;28;8844;-68
2023/10/01 09:19:34;;;;;;;;;9.25;8.50;;;;;17.88;75.02;102246.03;5010541;28;8829;-71
2023/10/01 09:22:08;;;;;;;;;15.75;12.25;;;;;17.85;75.35;102240.16;4985249;28;8850;-68
2023/10/01 09:24:42;;;;;;;;;13.33;11.33;;;;;17.86;75.44;102242.66;5003754;28;8839;-67
2023/10/01 09:27:19;;;;;;;;;7.00;7.00;;;;;17.98;75.31;102240.16;4992777;28;9003;-69
2023/10/01 09:29:57;;;;;;;;;7.25;6.75;;;;;18.08;75.50;102245.22;4993929;28;8844;-68
2023/10/01 09:32:49;;;;;;;;;9.75;8.75;;;;;18.16;75.27;102234.09;5005796;28;8868;-68
2023/10/01 09:35:30;;;;;;;;;11.50;8.00;;;;;18.15;74.61;102235.97;4990716;28;8847;-69
2023/10/01 09:38:18;;;;;;;;;8.00;8.00;;;;;18.21;74.94;102237.84;4973914;28;8850;-68
2023/10/01 09:40:47;;;;;;;;;9.00;5.25;;;;;18.31;74.49;102228.41;4993582;28;8862;-71
2023/10/01 09:43:18;;;;;;;;;7.75;7.75;;;;;18.36;74.39;102232.19;5010662;28;8971;-69
2023/10/01 09:45:48;;;;;;;;;16.50;14.25;;;;;18.34;74.31;102228.81;5010980;28;8832;-68
2023/10/01 09:48:37;;;;;;;;;14.75;10.75;;;;;18.32;74.18;102225.47;5010133;28;8906;-68
2023/10/01 09:51:13;;;;;;;;;14.00;11.33;;;;;18.36;74.03;102220.44;5011349;28;8851;-69
2023/10/01 09:53:51;;;;;;;;;11.75;10.75;;;;;18.40;73.99;102211.63;5011185;28;9711;-68
2023/10/01 09:59:07;;;;;;;;;11.00;10.00;;;;;18.48;74.08;102219.56;4993399;28;9601;-69
2023/10/01 10:01:39;;;;;;;;;10.00;10.00;;;;;18.50;73.65;102222.91;5006783;28;8840;-68
2023/10/01 10:04:10;;;;;;;;;9.33;8.00;;;;;18.52;73.65;102209.91;4993431;28;8848;-68
2023/10/01 10:06:39;;;;;;;;;11.50;9.25;;;;;18.51;73.77;102200.06;5010359;28;9003;-67
2023/10/01 10:09:25;;;;;;;;;12.25;11.00;;;;;18.54;73.00;102201.50;5010862;28;8841;-68
2023/10/01 10:11:52;;;;;;;;;11.75;9.75;;;;;18.50;73.57;102200.25;4995627;28;8957;-68
2023/10/01 10:14:25;;;;;;;;;11.50;11.25;;;;;18.47;73.79;102190.63;4976165;28;8898;-68
2023/10/01 10:16:57;;;;;;;;;10.75;9.50;;;;;18.53;73.47;102188.94;4982601;28;8859;-68
2023/10/01 10:19:25;;;;;;;;;10.50;9.50;;;;;18.59;73.14;102181.78;5010079;28;8812;-68
2023/10/01 10:22:05;;;;;;;;;10.50;9.25;;;;;18.66;73.19;102183.44;5002451;28;8816;-67
2023/10/01 10:24:36;;;;;;;;;11.25;8.00;;;;;18.69;72.83;102191.19;5010261;28;8855;-67
2023/10/01 10:27:07;;;;;;;;;14.75;10.75;;;;;18.74;72.85;102185.94;4992828;28;8929;-68
2023/10/01 10:29:56;;;;;;;;;12.50;11.00;;;;;18.77;72.59;102192.88;4992199;28;8888;-69
2023/10/01 10:32:27;;;;;;;;;10.00;8.50;;;;;18.77;72.82;102196.44;4993135;28;9573;-71
2023/10/01 10:35:06;;;;;;;;;12.25;11.00;;;;;18.85;72.68;102192.63;5010683;28;9496;-70
2023/10/01 10:37:36;;;;;;;;;10.75;8.75;;;;;18.96;72.70;102197.41;5010469;28;8841;-69
2023/10/01 10:40:12;;;;;;;;;12.33;11.67;;;;;18.98;72.90;102189.00;4992439;28;8962;-68
2023/10/01 10:43:04;;;;;;;;;12.00;10.00;;;;;19.01;72.74;102191.31;4991769;28;8997;-67
2023/10/01 10:45:45;;;;;;;;;18.00;12.00;;;;;19.00;72.49;102182.28;5005293;28;8832;-68
2023/10/01 10:48:21;;;;;;;;;10.00;10.00;;;;;19.06;72.41;102188.75;4990514;28;9596;-69
2023/10/01 10:50:57;;;;;;;;;8.00;7.75;;;;;19.18;72.04;102188.91;4990961;28;8831;-69
2023/10/01 10:53:42;;;;;;;;;7.50;7.50;;;;;19.21;72.48;102193.94;4976480;28;8831;-70
2023/10/01 10:56:14;;;;;;;;;12.25;10.25;;;;;19.25;71.96;102201.47;4990229;28;8838;-68
2023/10/01 10:59:01;;;;;;;;;8.75;8.50;;;;;19.15;71.28;102195.63;4993922;28;8993;-68
2023/10/01 11:01:43;;;;;;;;;12.75;9.00;;;;;19.25;71.09;102195.16;5011669;28;8833;-70
2023/10/01 11:04:12;;;;;;;;;9.75;9.00;;;;;19.36;70.95;102202.63;5016925;28;8848;-70
2023/10/01 11:06:39;;;;;;;;;7.25;7.25;;;;;19.41;70.95;102202.00;4998719;28;8937;-69
2023/10/01 11:09:22;;;;;;;;;13.25;10.75;;;;;19.41;70.91;102202.00;4999284;28;8851;-69
2023/10/01 11:11:51;;;;;;;;;11.25;10.50;;;;;19.53;71.00;102192.03;4998029;28;8888;-68
2023/10/01 11:14:19;;;;;;;;;8.50;8.00;;;;;19.63;70.86;102192.41;5015548;28;8860;-68
2023/10/01 11:16:47;;;;;;;;;11.75;9.25;;;;;19.60;70.43;102205.63;4978935;28;8847;-69
2023/10/01 11:19:16;;;;;;;;;9.25;9.25;;;;;19.67;69.88;102188.19;5012461;28;8967;-69
2023/10/01 11:22:00;;;;;;;;;10.25;8.75;;;;;19.71;69.71;102194.88;5016291;28;8849;-69
2023/10/01 11:24:36;;;;;;;;;11.25;9.75;;;;;19.68;70.13;102186.28;5016625;28;8844;-71
2023/10/01 11:30:20;;;;;;;;;7.25;6.00;;;;;19.93;69.91;102180.81;5011577;28;8855;-68
2023/10/01 11:32:58;;;;;;;;;7.50;7.50;;;;;20.00;69.78;102179.69;5013527;28;8841;-69
2023/10/01 11:35:32;;;;;;;;;15.25;12.25;;;;;19.97;69.96;102182.03;5016760;28;8835;-69
2023/10/01 11:38:13;;;;;;;;;8.75;8.00;;;;;19.99;69.55;102180.75;5012351;28;8848;-69
2023/10/01 11:43:35;;;;;;;;;8.00;8.00;;;;;20.09;69.35;102173.94;4998094;28;8840;-70
2023/10/01 11:46:24;;;;;;;;;12.00;10.75;;;;;20.11;69.40;102166.34;5016277;28;9613;-69
2023/10/01 11:49:14;;;;;;;;;13.50;8.75;;;;;20.19;68.83;102172.38;5015940;28;9551;-68
2023/10/01 11:51:45;;;;;;;;;11.75;11.75;;;;;20.21;68.72;102163.94;5011755;28;8998;-70
2023/10/01 11:54:25;;;;;;;;;8.75;8.25;;;;;20.27;68.19;102176.72;4996916;28;8846;-69
2023/10/01 11:57:06;;;;;;;;;10.25;9.75;;;;;20.34;68.01;102171.19;4980364;28;8846;-69
2023/10/01 11:59:41;;;;;;;;;8.50;7.00;;;;;20.43;67.99;102164.34;5015463;28;8851;-69
2023/10/01 12:02:23;;;;;;;;;9.75;9.75;;;;;20.46;68.13;102161.16;5008305;28;8859;-69
2023/10/01 12:04:57;;;;;;;;;9.50;8.50;;;;;20.49;67.80;102155.22;5016264;28;8860;-69
2023/10/01 12:07:31;;;;;;;;;10.75;9.50;;;;;20.54;67.68;102160.88;5016010;28;8879;-70
2023/10/01 12:10:04;;;;;;;;;8.50;8.50;;;;;20.56;67.37;102166.94;5016835;28;8816;-69
2023/10/01 12:12:39;;;;;;;;;10.00;10.00;;;;;20.58;67.03;102167.56;5005388;28;8859;-69
2023/10/01 12:17:52;;;;;;;;;8.75;8.50;;;;;20.61;66.89;102156.13;5010516;28;8851;-70
2023/10/01 12:20:22;;;;;;;;;13.75;8.75;;;;;20.63;67.01;102156.75;5006633;28;8921;-69
2023/10/01 12:25:49;;;;;;;;;11.00;9.00;;;;;20.67;65.65;102151.66;5013361;28;8840;-70
2023/10/01 12:28:24;;;;;;;;;9.25;7.50;;;;;20.74;65.17;102156.00;5012828;28;8828;-69
2023/10/01 12:30:58;;;;;;;;;11.50;9.50;;;;;20.63;63.91;102150.47;5013770;28;8828;-69
2023/10/01 12:33:43;;;;;;;;;10.25;8.75;;;;;20.60;63.20;102154.47;4988680;28;8852;-70
2023/10/01 12:36:31;;;;;;;;;11.25;9.00;;;;;20.78;63.15;102158.25;4993505;28;8926;-69
2023/10/01 12:44:30;;;;;;;;;7.25;7.25;;;;;20.90;62.79;102165.47;4992499;28;8858;-68
2023/10/01 12:47:02;;;;;;;;;7.25;7.25;;;;;20.96;62.58;102147.28;5001906;28;8836;-69